sensor_id;sensor_type;location;lat;lon;timestamp;P1;durP1;ratioP1;P2;durP2;ratioP2
45548;SDS011;31270;48.328;10.096;2023-07-29T00:00:52;9.27;;;5.63;;
45548;SDS011;31270;48.328;10.096;2023-07-29T00:03:17;6.63;;;5.78;;
45548;SDS011;31270;48.328;10.096;2023-07-29T00:05:43;8.18;;;5.97;;
45548;SDS011;31270;48.328;10.096;2023-07-29T00:08:09;7.82;;;6.05;;
45548;SDS011;31270;48.328;10.096;2023-07-29T00:10:37;9.05;;;5.55;;
45548;SDS011;31270;48.328;10.096;2023-07-29T00:13:04;7.45;;;5.47;;
45548;SDS011;31270;48.328;10.096;2023-07-29T00:15:30;9.88;;;5.53;;
45548;SDS011;31270;48.328;10.096;2023-07-29T00:17:56;6.72;;;5.40;;
45548;SDS011;31270;48.328;10.096;2023-07-29T00:20:21;8.90;;;5.72;;
45548;SDS011;31270;48.328;10.096;2023-07-29T00:22:47;9.13;;;5.78;;
45548;SDS011;31270;48.328;10.096;2023-07-29T00:25:17;9.55;;;6.03;;
45548;SDS011;31270;48.328;10.096;2023-07-29T00:27:43;9.32;;;5.65;;
45548;SDS011;31270;48.328;10.096;2023-07-29T00:30:09;9.02;;;6.32;;
45548;SDS011;31270;48.328;10.096;2023-07-29T00:32:35;9.13;;;6.40;;
45548;SDS011;31270;48.328;10.096;2023-07-29T00:35:01;8.38;;;5.82;;
45548;SDS011;31270;48.328;10.096;2023-07-29T00:37:27;10.00;;;5.95;;
45548;SDS011;31270;48.328;10.096;2023-07-29T00:39:53;8.10;;;6.35;;
45548;SDS011;31270;48.328;10.096;2023-07-29T00:42:19;9.38;;;6.43;;
45548;SDS011;31270;48.328;10.096;2023-07-29T00:44:44;7.72;;;6.35;;
45548;SDS011;31270;48.328;10.096;2023-07-29T00:47:10;9.23;;;6.07;;
45548;SDS011;31270;48.328;10.096;2023-07-29T00:49:37;12.23;;;5.53;;
45548;SDS011;31270;48.328;10.096;2023-07-29T00:52:03;7.63;;;5.93;;
45548;SDS011;31270;48.328;10.096;2023-07-29T00:54:29;6.97;;;5.82;;
45548;SDS011;31270;48.328;10.096;2023-07-29T00:56:55;7.70;;;5.47;;
45548;SDS011;31270;48.328;10.096;2023-07-29T00:59:20;11.23;;;5.78;;
45548;SDS011;31270;48.328;10.096;2023-07-29T01:01:46;7.65;;;5.65;;
45548;SDS011;31270;48.328;10.096;2023-07-29T01:04:12;7.03;;;5.78;;
45548;SDS011;31270;48.328;10.096;2023-07-29T01:09:19;4.95;;;4.35;;
45548;SDS011;31270;48.328;10.096;2023-07-29T01:14:21;4.28;;;3.88;;
45548;SDS011;31270;48.328;10.096;2023-07-29T01:17:00;5.55;;;4.60;;
45548;SDS011;31270;48.328;10.096;2023-07-29T01:19:36;5.95;;;5.22;;
45548;SDS011;31270;48.328;10.096;2023-07-29T01:22:24;6.07;;;5.47;;
45548;SDS011;31270;48.328;10.096;2023-07-29T01:24:50;9.57;;;5.55;;
45548;SDS011;31270;48.328;10.096;2023-07-29T01:27:15;7.00;;;5.90;;
45548;SDS011;31270;48.328;10.096;2023-07-29T01:29:41;10.10;;;6.07;;
45548;SDS011;31270;48.328;10.096;2023-07-29T01:32:09;9.13;;;6.15;;
45548;SDS011;31270;48.328;10.096;2023-07-29T01:37:48;11.23;;;6.65;;
45548;SDS011;31270;48.328;10.096;2023-07-29T01:40:16;8.23;;;6.55;;
45548;SDS011;31270;48.328;10.096;2023-07-29T01:42:43;7.53;;;6.10;;
45548;SDS011;31270;48.328;10.096;2023-07-29T01:45:11;9.20;;;6.47;;
45548;SDS011;31270;48.328;10.096;2023-07-29T01:47:37;8.77;;;6.45;;
45548;SDS011;31270;48.328;10.096;2023-07-29T01:50:05;10.68;;;6.75;;
45548;SDS011;31270;48.328;10.096;2023-07-29T01:52:31;9.48;;;6.28;;
45548;SDS011;31270;48.328;10.096;2023-07-29T01:54:57;11.55;;;7.10;;
45548;SDS011;31270;48.328;10.096;2023-07-29T01:57:23;9.70;;;7.28;;
45548;SDS011;31270;48.328;10.096;2023-07-29T01:59:49;9.65;;;7.43;;
45548;SDS011;31270;48.328;10.096;2023-07-29T02:02:14;13.15;;;7.82;;
45548;SDS011;31270;48.328;10.096;2023-07-29T02:04:40;10.88;;;7.57;;
45548;SDS011;31270;48.328;10.096;2023-07-29T02:07:06;15.32;;;7.85;;
45548;SDS011;31270;48.328;10.096;2023-07-29T02:09:32;8.90;;;7.20;;
45548;SDS011;31270;48.328;10.096;2023-07-29T02:11:58;10.40;;;6.85;;
45548;SDS011;31270;48.328;10.096;2023-07-29T02:14:23;11.23;;;7.07;;
45548;SDS011;31270;48.328;10.096;2023-07-29T02:16:49;12.18;;;7.30;;
45548;SDS011;31270;48.328;10.096;2023-07-29T02:19:15;10.80;;;7.25;;
45548;SDS011;31270;48.328;10.096;2023-07-29T02:21:41;10.60;;;7.30;;
45548;SDS011;31270;48.328;10.096;2023-07-29T02:24:07;9.73;;;7.60;;
45548;SDS011;31270;48.328;10.096;2023-07-29T02:26:32;12.18;;;7.35;;
45548;SDS011;31270;48.328;10.096;2023-07-29T02:28:58;11.38;;;8.32;;
45548;SDS011;31270;48.328;10.096;2023-07-29T02:31:24;11.88;;;7.25;;
45548;SDS011;31270;48.328;10.096;2023-07-29T02:33:50;10.80;;;7.22;;
45548;SDS011;31270;48.328;10.096;2023-07-29T02:36:16;10.88;;;7.68;;
45548;SDS011;31270;48.328;10.096;2023-07-29T02:38:42;12.10;;;7.38;;
45548;SDS011;31270;48.328;10.096;2023-07-29T02:41:08;9.13;;;7.13;;
45548;SDS011;31270;48.328;10.096;2023-07-29T02:43:35;9.75;;;7.18;;
45548;SDS011;31270;48.328;10.096;2023-07-29T02:46:04;9.77;;;6.65;;
45548;SDS011;31270;48.328;10.096;2023-07-29T02:48:30;8.75;;;6.72;;
45548;SDS011;31270;48.328;10.096;2023-07-29T02:50:56;12.75;;;7.38;;
45548;SDS011;31270;48.328;10.096;2023-07-29T02:53:22;8.27;;;7.07;;
45548;SDS011;31270;48.328;10.096;2023-07-29T02:55:48;9.93;;;6.82;;
45548;SDS011;31270;48.328;10.096;2023-07-29T02:58:14;8.43;;;6.75;;
45548;SDS011;31270;48.328;10.096;2023-07-29T03:00:40;10.65;;;6.78;;
45548;SDS011;31270;48.328;10.096;2023-07-29T03:03:10;9.75;;;7.28;;
45548;SDS011;31270;48.328;10.096;2023-07-29T03:05:35;10.48;;;6.35;;
45548;SDS011;31270;48.328;10.096;2023-07-29T03:08:03;9.98;;;7.18;;
45548;SDS011;31270;48.328;10.096;2023-07-29T03:10:29;7.50;;;6.25;;
45548;SDS011;31270;48.328;10.096;2023-07-29T03:12:54;9.13;;;6.82;;
45548;SDS011;31270;48.328;10.096;2023-07-29T03:15:24;10.07;;;6.70;;
45548;SDS011;31270;48.328;10.096;2023-07-29T03:17:50;8.90;;;6.90;;
45548;SDS011;31270;48.328;10.096;2023-07-29T03:20:16;9.07;;;6.25;;
45548;SDS011;31270;48.328;10.096;2023-07-29T03:22:43;8.75;;;6.00;;
45548;SDS011;31270;48.328;10.096;2023-07-29T03:25:09;11.13;;;6.97;;
45548;SDS011;31270;48.328;10.096;2023-07-29T03:27:35;10.15;;;6.70;;
45548;SDS011;31270;48.328;10.096;2023-07-29T03:30:05;11.63;;;6.60;;
45548;SDS011;31270;48.328;10.096;2023-07-29T03:32:32;7.25;;;6.45;;
45548;SDS011;31270;48.328;10.096;2023-07-29T03:34:58;12.25;;;6.78;;
45548;SDS011;31270;48.328;10.096;2023-07-29T03:37:24;10.00;;;7.13;;
45548;SDS011;31270;48.328;10.096;2023-07-29T03:39:50;8.80;;;6.68;;
45548;SDS011;31270;48.328;10.096;2023-07-29T03:42:17;11.07;;;8.30;;
45548;SDS011;31270;48.328;10.096;2023-07-29T03:44:43;9.18;;;6.97;;
45548;SDS011;31270;48.328;10.096;2023-07-29T03:47:08;12.20;;;7.60;;
45548;SDS011;31270;48.328;10.096;2023-07-29T03:49:34;10.55;;;7.53;;
45548;SDS011;31270;48.328;10.096;2023-07-29T03:51:59;10.95;;;7.25;;
45548;SDS011;31270;48.328;10.096;2023-07-29T03:54:25;8.38;;;7.35;;
45548;SDS011;31270;48.328;10.096;2023-07-29T03:56:51;9.95;;;6.97;;
45548;SDS011;31270;48.328;10.096;2023-07-29T03:59:16;10.88;;;7.65;;
45548;SDS011;31270;48.328;10.096;2023-07-29T04:01:42;10.27;;;7.90;;
45548;SDS011;31270;48.328;10.096;2023-07-29T04:04:08;7.50;;;6.43;;
45548;SDS011;31270;48.328;10.096;2023-07-29T04:06:33;15.75;;;8.02;;
45548;SDS011;31270;48.328;10.096;2023-07-29T04:08:59;10.32;;;6.75;;
45548;SDS011;31270;48.328;10.096;2023-07-29T04:11:25;10.40;;;7.13;;
45548;SDS011;31270;48.328;10.096;2023-07-29T04:13:51;9.73;;;7.32;;
45548;SDS011;31270;48.328;10.096;2023-07-29T04:16:23;10.95;;;6.82;;
45548;SDS011;31270;48.328;10.096;2023-07-29T04:18:48;11.80;;;7.05;;
45548;SDS011;31270;48.328;10.096;2023-07-29T04:21:14;9.43;;;6.88;;
45548;SDS011;31270;48.328;10.096;2023-07-29T04:23:39;9.15;;;7.18;;
45548;SDS011;31270;48.328;10.096;2023-07-29T04:26:05;9.65;;;7.18;;
45548;SDS011;31270;48.328;10.096;2023-07-29T04:28:31;9.40;;;7.07;;
45548;SDS011;31270;48.328;10.096;2023-07-29T04:30:56;9.75;;;7.43;;
45548;SDS011;31270;48.328;10.096;2023-07-29T04:33:22;9.48;;;6.72;;
45548;SDS011;31270;48.328;10.096;2023-07-29T04:35:47;9.10;;;6.85;;
45548;SDS011;31270;48.328;10.096;2023-07-29T04:38:13;7.82;;;6.28;;
45548;SDS011;31270;48.328;10.096;2023-07-29T04:40:38;9.10;;;6.65;;
45548;SDS011;31270;48.328;10.096;2023-07-29T04:43:04;8.35;;;7.03;;
45548;SDS011;31270;48.328;10.096;2023-07-29T04:45:30;10.65;;;6.28;;
45548;SDS011;31270;48.328;10.096;2023-07-29T04:47:55;8.02;;;6.53;;
45548;SDS011;31270;48.328;10.096;2023-07-29T04:50:21;8.10;;;6.75;;
45548;SDS011;31270;48.328;10.096;2023-07-29T04:52:47;8.55;;;6.95;;
45548;SDS011;31270;48.328;10.096;2023-07-29T04:55:12;10.65;;;7.30;;
45548;SDS011;31270;48.328;10.096;2023-07-29T04:57:38;8.25;;;6.70;;
45548;SDS011;31270;48.328;10.096;2023-07-29T05:00:04;8.57;;;7.28;;
45548;SDS011;31270;48.328;10.096;2023-07-29T05:02:32;10.40;;;6.82;;
45548;SDS011;31270;48.328;10.096;2023-07-29T05:04:57;9.00;;;6.65;;
45548;SDS011;31270;48.328;10.096;2023-07-29T05:07:23;8.60;;;6.88;;
45548;SDS011;31270;48.328;10.096;2023-07-29T05:09:48;8.95;;;7.05;;
45548;SDS011;31270;48.328;10.096;2023-07-29T05:12:14;10.85;;;6.35;;
45548;SDS011;31270;48.328;10.096;2023-07-29T05:14:40;8.95;;;7.22;;
45548;SDS011;31270;48.328;10.096;2023-07-29T05:17:05;10.32;;;7.60;;
45548;SDS011;31270;48.328;10.096;2023-07-29T05:19:31;11.80;;;6.88;;
45548;SDS011;31270;48.328;10.096;2023-07-29T05:21:57;8.70;;;7.30;;
45548;SDS011;31270;48.328;10.096;2023-07-29T05:24:23;11.23;;;7.43;;
45548;SDS011;31270;48.328;10.096;2023-07-29T05:26:49;9.00;;;6.63;;
45548;SDS011;31270;48.328;10.096;2023-07-29T05:29:14;10.27;;;6.88;;
45548;SDS011;31270;48.328;10.096;2023-07-29T05:31:40;9.75;;;6.57;;
45548;SDS011;31270;48.328;10.096;2023-07-29T05:34:06;9.55;;;6.75;;
45548;SDS011;31270;48.328;10.096;2023-07-29T05:36:31;8.50;;;6.03;;
45548;SDS011;31270;48.328;10.096;2023-07-29T05:38:58;7.80;;;6.25;;
45548;SDS011;31270;48.328;10.096;2023-07-29T05:41:24;7.32;;;5.88;;
45548;SDS011;31270;48.328;10.096;2023-07-29T05:43:52;13.57;;;6.25;;
45548;SDS011;31270;48.328;10.096;2023-07-29T05:46:25;9.20;;;6.00;;
45548;SDS011;31270;48.328;10.096;2023-07-29T05:48:51;7.15;;;5.78;;
45548;SDS011;31270;48.328;10.096;2023-07-29T05:51:16;7.45;;;5.72;;
45548;SDS011;31270;48.328;10.096;2023-07-29T05:53:42;8.30;;;5.50;;
45548;SDS011;31270;48.328;10.096;2023-07-29T05:56:08;7.88;;;5.82;;
45548;SDS011;31270;48.328;10.096;2023-07-29T05:58:42;8.10;;;5.72;;
45548;SDS011;31270;48.328;10.096;2023-07-29T06:01:09;7.72;;;5.82;;
45548;SDS011;31270;48.328;10.096;2023-07-29T06:03:34;8.52;;;6.25;;
45548;SDS011;31270;48.328;10.096;2023-07-29T06:06:00;8.07;;;6.07;;
45548;SDS011;31270;48.328;10.096;2023-07-29T06:08:26;7.20;;;6.22;;
45548;SDS011;31270;48.328;10.096;2023-07-29T06:10:53;7.00;;;6.30;;
45548;SDS011;31270;48.328;10.096;2023-07-29T06:13:19;10.55;;;6.55;;
45548;SDS011;31270;48.328;10.096;2023-07-29T06:15:44;9.60;;;6.18;;
45548;SDS011;31270;48.328;10.096;2023-07-29T06:18:10;6.78;;;5.63;;
45548;SDS011;31270;48.328;10.096;2023-07-29T06:20:35;9.60;;;6.25;;
45548;SDS011;31270;48.328;10.096;2023-07-29T06:23:01;7.93;;;5.70;;
45548;SDS011;31270;48.328;10.096;2023-07-29T06:25:27;6.38;;;5.70;;
45548;SDS011;31270;48.328;10.096;2023-07-29T06:27:53;7.80;;;5.95;;
45548;SDS011;31270;48.328;10.096;2023-07-29T06:30:18;5.70;;;5.03;;
45548;SDS011;31270;48.328;10.096;2023-07-29T06:32:44;6.55;;;5.85;;
45548;SDS011;31270;48.328;10.096;2023-07-29T06:35:09;7.78;;;5.53;;
45548;SDS011;31270;48.328;10.096;2023-07-29T06:37:35;7.85;;;6.53;;
45548;SDS011;31270;48.328;10.096;2023-07-29T06:40:00;10.45;;;6.65;;
45548;SDS011;31270;48.328;10.096;2023-07-29T06:42:26;6.65;;;5.82;;
45548;SDS011;31270;48.328;10.096;2023-07-29T06:44:52;7.55;;;4.95;;
45548;SDS011;31270;48.328;10.096;2023-07-29T06:47:18;6.65;;;5.13;;
45548;SDS011;31270;48.328;10.096;2023-07-29T06:49:43;5.75;;;4.55;;
45548;SDS011;31270;48.328;10.096;2023-07-29T06:52:10;5.50;;;4.43;;
45548;SDS011;31270;48.328;10.096;2023-07-29T06:54:36;5.72;;;4.78;;
45548;SDS011;31270;48.328;10.096;2023-07-29T06:57:02;9.98;;;4.72;;
45548;SDS011;31270;48.328;10.096;2023-07-29T06:59:28;6.47;;;4.32;;
45548;SDS011;31270;48.328;10.096;2023-07-29T07:01:53;5.63;;;3.80;;
45548;SDS011;31270;48.328;10.096;2023-07-29T07:04:19;7.32;;;3.95;;
45548;SDS011;31270;48.328;10.096;2023-07-29T07:06:44;6.50;;;3.90;;
45548;SDS011;31270;48.328;10.096;2023-07-29T07:09:10;4.68;;;4.13;;
45548;SDS011;31270;48.328;10.096;2023-07-29T07:11:35;6.00;;;4.25;;
45548;SDS011;31270;48.328;10.096;2023-07-29T07:14:01;5.35;;;4.28;;
45548;SDS011;31270;48.328;10.096;2023-07-29T07:16:27;4.80;;;4.03;;
45548;SDS011;31270;48.328;10.096;2023-07-29T07:18:55;4.97;;;3.97;;
45548;SDS011;31270;48.328;10.096;2023-07-29T07:21:21;5.95;;;4.05;;
45548;SDS011;31270;48.328;10.096;2023-07-29T07:23:51;9.85;;;4.22;;
45548;SDS011;31270;48.328;10.096;2023-07-29T07:26:17;5.35;;;4.22;;
45548;SDS011;31270;48.328;10.096;2023-07-29T07:28:42;5.40;;;4.25;;
45548;SDS011;31270;48.328;10.096;2023-07-29T07:31:08;4.50;;;4.10;;
45548;SDS011;31270;48.328;10.096;2023-07-29T07:33:34;8.20;;;3.97;;
45548;SDS011;31270;48.328;10.096;2023-07-29T07:36:00;4.43;;;3.90;;
45548;SDS011;31270;48.328;10.096;2023-07-29T07:38:25;4.60;;;4.10;;
45548;SDS011;31270;48.328;10.096;2023-07-29T07:40:55;4.60;;;3.88;;
45548;SDS011;31270;48.328;10.096;2023-07-29T07:43:21;4.50;;;4.10;;
45548;SDS011;31270;48.328;10.096;2023-07-29T07:45:48;7.00;;;4.07;;
45548;SDS011;31270;48.328;10.096;2023-07-29T07:48:13;5.05;;;3.78;;
45548;SDS011;31270;48.328;10.096;2023-07-29T07:50:41;5.07;;;3.95;;
45548;SDS011;31270;48.328;10.096;2023-07-29T07:53:07;5.22;;;4.10;;
45548;SDS011;31270;48.328;10.096;2023-07-29T07:55:33;5.75;;;4.15;;
45548;SDS011;31270;48.328;10.096;2023-07-29T07:57:59;4.72;;;3.80;;
45548;SDS011;31270;48.328;10.096;2023-07-29T08:00:24;6.30;;;4.38;;
45548;SDS011;31270;48.328;10.096;2023-07-29T08:02:50;5.70;;;3.47;;
45548;SDS011;31270;48.328;10.096;2023-07-29T08:05:15;5.78;;;4.05;;
45548;SDS011;31270;48.328;10.096;2023-07-29T08:07:41;4.60;;;3.88;;
45548;SDS011;31270;48.328;10.096;2023-07-29T08:10:07;4.78;;;3.88;;
45548;SDS011;31270;48.328;10.096;2023-07-29T08:12:33;4.35;;;3.90;;
45548;SDS011;31270;48.328;10.096;2023-07-29T08:14:58;5.03;;;4.05;;
45548;SDS011;31270;48.328;10.096;2023-07-29T08:17:24;4.10;;;3.58;;
45548;SDS011;31270;48.328;10.096;2023-07-29T08:19:50;4.90;;;4.38;;
45548;SDS011;31270;48.328;10.096;2023-07-29T08:22:15;5.68;;;3.78;;
45548;SDS011;31270;48.328;10.096;2023-07-29T08:24:42;4.63;;;4.00;;
45548;SDS011;31270;48.328;10.096;2023-07-29T08:27:08;5.35;;;3.80;;
45548;SDS011;31270;48.328;10.096;2023-07-29T08:29:33;6.97;;;3.83;;
45548;SDS011;31270;48.328;10.096;2023-07-29T08:31:59;5.65;;;4.30;;
45548;SDS011;31270;48.328;10.096;2023-07-29T08:34:24;7.28;;;4.30;;
45548;SDS011;31270;48.328;10.096;2023-07-29T08:36:50;5.40;;;3.50;;
45548;SDS011;31270;48.328;10.096;2023-07-29T08:39:16;4.72;;;3.83;;
45548;SDS011;31270;48.328;10.096;2023-07-29T08:41:46;4.68;;;4.20;;
45548;SDS011;31270;48.328;10.096;2023-07-29T08:44:30;4.95;;;4.10;;
45548;SDS011;31270;48.328;10.096;2023-07-29T08:47:01;6.53;;;4.65;;
45548;SDS011;31270;48.328;10.096;2023-07-29T08:49:26;6.75;;;4.30;;
45548;SDS011;31270;48.328;10.096;2023-07-29T08:51:53;6.53;;;4.00;;
45548;SDS011;31270;48.328;10.096;2023-07-29T08:54:20;6.15;;;4.35;;
45548;SDS011;31270;48.328;10.096;2023-07-29T08:56:46;6.53;;;4.70;;
45548;SDS011;31270;48.328;10.096;2023-07-29T08:59:13;5.57;;;4.53;;
45548;SDS011;31270;48.328;10.096;2023-07-29T09:01:39;9.05;;;5.13;;
45548;SDS011;31270;48.328;10.096;2023-07-29T09:04:05;9.65;;;5.75;;
45548;SDS011;31270;48.328;10.096;2023-07-29T09:06:30;8.40;;;5.70;;
45548;SDS011;31270;48.328;10.096;2023-07-29T09:08:56;7.22;;;5.10;;
45548;SDS011;31270;48.328;10.096;2023-07-29T09:11:24;14.57;;;6.68;;
45548;SDS011;31270;48.328;10.096;2023-07-29T09:13:50;7.38;;;5.50;;
45548;SDS011;31270;48.328;10.096;2023-07-29T09:16:18;9.70;;;5.65;;
45548;SDS011;31270;48.328;10.096;2023-07-29T09:18:47;8.13;;;5.05;;
45548;SDS011;31270;48.328;10.096;2023-07-29T09:21:15;6.95;;;5.07;;
45548;SDS011;31270;48.328;10.096;2023-07-29T09:23:43;6.75;;;5.28;;
45548;SDS011;31270;48.328;10.096;2023-07-29T09:26:11;8.65;;;5.30;;
45548;SDS011;31270;48.328;10.096;2023-07-29T09:28:37;5.50;;;4.88;;
45548;SDS011;31270;48.328;10.096;2023-07-29T09:31:04;9.45;;;5.43;;
45548;SDS011;31270;48.328;10.096;2023-07-29T09:33:32;9.18;;;5.75;;
45548;SDS011;31270;48.328;10.096;2023-07-29T09:36:00;6.57;;;5.45;;
45548;SDS011;31270;48.328;10.096;2023-07-29T09:38:29;7.47;;;5.97;;
45548;SDS011;31270;48.328;10.096;2023-07-29T09:40:55;6.70;;;5.95;;
45548;SDS011;31270;48.328;10.096;2023-07-29T09:43:26;6.20;;;5.60;;
45548;SDS011;31270;48.328;10.096;2023-07-29T09:45:55;10.73;;;5.82;;
45548;SDS011;31270;48.328;10.096;2023-07-29T09:48:24;6.72;;;5.60;;
45548;SDS011;31270;48.328;10.096;2023-07-29T09:50:50;9.00;;;5.65;;
45548;SDS011;31270;48.328;10.096;2023-07-29T09:53:16;6.95;;;5.53;;
45548;SDS011;31270;48.328;10.096;2023-07-29T09:55:51;9.23;;;5.18;;
45548;SDS011;31270;48.328;10.096;2023-07-29T09:58:27;11.85;;;4.72;;
45548;SDS011;31270;48.328;10.096;2023-07-29T10:00:53;7.20;;;4.28;;
45548;SDS011;31270;48.328;10.096;2023-07-29T10:03:20;6.93;;;4.25;;
45548;SDS011;31270;48.328;10.096;2023-07-29T10:05:47;4.90;;;3.63;;
45548;SDS011;31270;48.328;10.096;2023-07-29T10:08:13;4.28;;;3.50;;
45548;SDS011;31270;48.328;10.096;2023-07-29T10:10:42;4.78;;;2.97;;
45548;SDS011;31270;48.328;10.096;2023-07-29T10:13:08;3.67;;;3.28;;
45548;SDS011;31270;48.328;10.096;2023-07-29T10:15:35;4.07;;;3.35;;
45548;SDS011;31270;48.328;10.096;2023-07-29T10:18:02;3.15;;;2.85;;
45548;SDS011;31270;48.328;10.096;2023-07-29T10:20:30;3.05;;;2.75;;
45548;SDS011;31270;48.328;10.096;2023-07-29T10:22:59;3.80;;;2.75;;
45548;SDS011;31270;48.328;10.096;2023-07-29T10:25:27;3.25;;;2.75;;
45548;SDS011;31270;48.328;10.096;2023-07-29T10:28:07;3.78;;;2.70;;
45548;SDS011;31270;48.328;10.096;2023-07-29T10:30:33;4.03;;;2.60;;
45548;SDS011;31270;48.328;10.096;2023-07-29T10:33:01;4.05;;;2.72;;
45548;SDS011;31270;48.328;10.096;2023-07-29T10:35:28;2.55;;;2.35;;
45548;SDS011;31270;48.328;10.096;2023-07-29T10:37:54;2.97;;;2.67;;
45548;SDS011;31270;48.328;10.096;2023-07-29T10:40:20;3.80;;;2.88;;
45548;SDS011;31270;48.328;10.096;2023-07-29T10:43:00;4.75;;;2.42;;
45548;SDS011;31270;48.328;10.096;2023-07-29T10:45:48;3.63;;;3.05;;
45548;SDS011;31270;48.328;10.096;2023-07-29T10:48:39;3.22;;;2.92;;
45548;SDS011;31270;48.328;10.096;2023-07-29T10:54:01;5.15;;;3.67;;
45548;SDS011;31270;48.328;10.096;2023-07-29T10:56:32;4.55;;;3.60;;
45548;SDS011;31270;48.328;10.096;2023-07-29T10:59:00;5.53;;;3.65;;
45548;SDS011;31270;48.328;10.096;2023-07-29T11:01:38;4.93;;;3.97;;
45548;SDS011;31270;48.328;10.096;2023-07-29T11:15:22;4.63;;;3.40;;
45548;SDS011;31270;48.328;10.096;2023-07-29T11:20:19;5.18;;;3.30;;
45548;SDS011;31270;48.328;10.096;2023-07-29T11:22:47;4.05;;;3.65;;
45548;SDS011;31270;48.328;10.096;2023-07-29T11:25:14;6.07;;;3.10;;
45548;SDS011;31270;48.328;10.096;2023-07-29T11:27:41;4.35;;;3.35;;
45548;SDS011;31270;48.328;10.096;2023-07-29T11:30:08;6.47;;;3.53;;
45548;SDS011;31270;48.328;10.096;2023-07-29T11:32:36;3.50;;;3.20;;
45548;SDS011;31270;48.328;10.096;2023-07-29T11:35:03;3.47;;;3.17;;
45548;SDS011;31270;48.328;10.096;2023-07-29T11:37:35;3.50;;;2.90;;
45548;SDS011;31270;48.328;10.096;2023-07-29T11:40:01;3.47;;;3.00;;
45548;SDS011;31270;48.328;10.096;2023-07-29T11:42:27;3.05;;;2.75;;
45548;SDS011;31270;48.328;10.096;2023-07-29T11:44:56;2.90;;;2.60;;
45548;SDS011;31270;48.328;10.096;2023-07-29T11:47:23;4.28;;;2.65;;
45548;SDS011;31270;48.328;10.096;2023-07-29T11:49:49;3.55;;;2.78;;
45548;SDS011;31270;48.328;10.096;2023-07-29T11:52:15;3.22;;;2.60;;
45548;SDS011;31270;48.328;10.096;2023-07-29T11:54:44;3.63;;;2.80;;
45548;SDS011;31270;48.328;10.096;2023-07-29T11:57:10;3.42;;;2.83;;
45548;SDS011;31270;48.328;10.096;2023-07-29T11:59:37;3.88;;;2.58;;
45548;SDS011;31270;48.328;10.096;2023-07-29T12:02:21;3.28;;;2.97;;
45548;SDS011;31270;48.328;10.096;2023-07-29T12:04:48;2.35;;;2.15;;
45548;SDS011;31270;48.328;10.096;2023-07-29T12:07:16;2.42;;;2.22;;
45548;SDS011;31270;48.328;10.096;2023-07-29T12:09:42;2.90;;;2.40;;
45548;SDS011;31270;48.328;10.096;2023-07-29T12:12:08;3.20;;;2.30;;
45548;SDS011;31270;48.328;10.096;2023-07-29T12:14:34;2.78;;;2.30;;
45548;SDS011;31270;48.328;10.096;2023-07-29T12:17:00;3.92;;;2.60;;
45548;SDS011;31270;48.328;10.096;2023-07-29T12:19:34;4.10;;;2.47;;
45548;SDS011;31270;48.328;10.096;2023-07-29T12:22:05;2.58;;;2.38;;
45548;SDS011;31270;48.328;10.096;2023-07-29T12:24:38;2.65;;;2.25;;
45548;SDS011;31270;48.328;10.096;2023-07-29T12:27:09;2.75;;;2.50;;
45548;SDS011;31270;48.328;10.096;2023-07-29T12:29:43;3.60;;;2.78;;
45548;SDS011;31270;48.328;10.096;2023-07-29T12:32:11;2.20;;;2.00;;
45548;SDS011;31270;48.328;10.096;2023-07-29T12:34:37;2.25;;;2.10;;
45548;SDS011;31270;48.328;10.096;2023-07-29T12:37:04;2.53;;;2.33;;
45548;SDS011;31270;48.328;10.096;2023-07-29T12:39:35;2.60;;;2.40;;
45548;SDS011;31270;48.328;10.096;2023-07-29T12:42:08;2.55;;;2.17;;
45548;SDS011;31270;48.328;10.096;2023-07-29T12:44:34;4.40;;;2.22;;
45548;SDS011;31270;48.328;10.096;2023-07-29T12:47:01;2.60;;;2.38;;
45548;SDS011;31270;48.328;10.096;2023-07-29T12:49:28;2.20;;;2.00;;
45548;SDS011;31270;48.328;10.096;2023-07-29T12:51:55;2.67;;;2.22;;
45548;SDS011;31270;48.328;10.096;2023-07-29T12:54:21;3.63;;;2.30;;
45548;SDS011;31270;48.328;10.096;2023-07-29T12:56:47;2.75;;;2.20;;
45548;SDS011;31270;48.328;10.096;2023-07-29T12:59:12;2.67;;;2.20;;
45548;SDS011;31270;48.328;10.096;2023-07-29T13:01:38;2.50;;;2.30;;
45548;SDS011;31270;48.328;10.096;2023-07-29T13:04:04;2.25;;;1.92;;
45548;SDS011;31270;48.328;10.096;2023-07-29T13:06:29;1.90;;;1.80;;
45548;SDS011;31270;48.328;10.096;2023-07-29T13:08:56;2.80;;;2.10;;
45548;SDS011;31270;48.328;10.096;2023-07-29T13:11:21;2.42;;;1.95;;
45548;SDS011;31270;48.328;10.096;2023-07-29T13:13:47;2.30;;;2.10;;
45548;SDS011;31270;48.328;10.096;2023-07-29T13:16:13;2.28;;;1.80;;
45548;SDS011;31270;48.328;10.096;2023-07-29T13:18:38;1.92;;;1.73;;
45548;SDS011;31270;48.328;10.096;2023-07-29T13:21:05;3.75;;;2.00;;
45548;SDS011;31270;48.328;10.096;2023-07-29T13:23:31;2.15;;;1.85;;
45548;SDS011;31270;48.328;10.096;2023-07-29T13:25:57;3.58;;;2.13;;
45548;SDS011;31270;48.328;10.096;2023-07-29T13:28:23;2.35;;;2.10;;
45548;SDS011;31270;48.328;10.096;2023-07-29T13:30:49;3.13;;;2.22;;
45548;SDS011;31270;48.328;10.096;2023-07-29T13:33:21;2.17;;;1.98;;
45548;SDS011;31270;48.328;10.096;2023-07-29T13:35:47;3.53;;;2.22;;
45548;SDS011;31270;48.328;10.096;2023-07-29T13:38:12;2.22;;;2.03;;
45548;SDS011;31270;48.328;10.096;2023-07-29T13:40:38;4.15;;;2.13;;
45548;SDS011;31270;48.328;10.096;2023-07-29T13:43:04;2.85;;;2.17;;
45548;SDS011;31270;48.328;10.096;2023-07-29T13:45:35;2.75;;;2.47;;
45548;SDS011;31270;48.328;10.096;2023-07-29T13:48:01;2.80;;;2.00;;
45548;SDS011;31270;48.328;10.096;2023-07-29T13:50:28;3.00;;;2.45;;
45548;SDS011;31270;48.328;10.096;2023-07-29T13:52:54;2.95;;;1.95;;
45548;SDS011;31270;48.328;10.096;2023-07-29T13:55:21;2.38;;;2.17;;
45548;SDS011;31270;48.328;10.096;2023-07-29T13:57:46;2.50;;;2.30;;
45548;SDS011;31270;48.328;10.096;2023-07-29T14:00:12;2.10;;;1.90;;
45548;SDS011;31270;48.328;10.096;2023-07-29T14:02:38;2.45;;;2.20;;
45548;SDS011;31270;48.328;10.096;2023-07-29T14:05:04;2.58;;;2.10;;
45548;SDS011;31270;48.328;10.096;2023-07-29T14:07:32;3.05;;;2.75;;
45548;SDS011;31270;48.328;10.096;2023-07-29T14:09:57;3.42;;;2.15;;
45548;SDS011;31270;48.328;10.096;2023-07-29T14:12:23;5.65;;;2.38;;
45548;SDS011;31270;48.328;10.096;2023-07-29T14:14:49;2.42;;;2.13;;
45548;SDS011;31270;48.328;10.096;2023-07-29T14:17:14;3.60;;;1.95;;
45548;SDS011;31270;48.328;10.096;2023-07-29T14:19:40;3.10;;;2.10;;
45548;SDS011;31270;48.328;10.096;2023-07-29T14:22:06;2.17;;;1.95;;
45548;SDS011;31270;48.328;10.096;2023-07-29T14:24:31;3.60;;;2.22;;
45548;SDS011;31270;48.328;10.096;2023-07-29T14:26:57;2.78;;;2.10;;
45548;SDS011;31270;48.328;10.096;2023-07-29T14:29:23;3.05;;;2.30;;
45548;SDS011;31270;48.328;10.096;2023-07-29T14:31:48;2.25;;;2.05;;
45548;SDS011;31270;48.328;10.096;2023-07-29T14:34:14;2.20;;;2.00;;
45548;SDS011;31270;48.328;10.096;2023-07-29T14:36:40;3.30;;;1.90;;
45548;SDS011;31270;48.328;10.096;2023-07-29T14:39:05;2.47;;;2.20;;
45548;SDS011;31270;48.328;10.096;2023-07-29T14:41:31;1.90;;;1.70;;
45548;SDS011;31270;48.328;10.096;2023-07-29T14:43:56;2.28;;;1.98;;
45548;SDS011;31270;48.328;10.096;2023-07-29T14:46:22;2.45;;;2.08;;
45548;SDS011;31270;48.328;10.096;2023-07-29T14:48:48;2.60;;;2.10;;
45548;SDS011;31270;48.328;10.096;2023-07-29T14:51:13;2.30;;;2.10;;
45548;SDS011;31270;48.328;10.096;2023-07-29T14:53:39;2.33;;;2.13;;
45548;SDS011;31270;48.328;10.096;2023-07-29T14:56:05;2.15;;;1.92;;